sensor_id;sensor_type;location;lat;lon;timestamp;temperature;humidity
54832;DHT22;40730;53.068;6.572;2022-11-25T00:00:23;7.30;99.90
54832;DHT22;40730;53.068;6.572;2022-11-25T00:02:48;7.30;99.90
54832;DHT22;40730;53.068;6.572;2022-11-25T00:05:14;7.40;99.90
54832;DHT22;40730;53.068;6.572;2022-11-25T00:07:39;7.40;99.90
54832;DHT22;40730;53.068;6.572;2022-11-25T00:10:06;7.40;99.90
54832;DHT22;40730;53.068;6.572;2022-11-25T00:12:31;7.40;99.90
54832;DHT22;40730;53.068;6.572;2022-11-25T00:14:57;7.40;99.90
54832;DHT22;40730;53.068;6.572;2022-11-25T00:17:22;7.40;99.90
54832;DHT22;40730;53.068;6.572;2022-11-25T00:19:48;7.40;99.90
54832;DHT22;40730;53.068;6.572;2022-11-25T00:22:15;7.40;99.90
54832;DHT22;40730;53.068;6.572;2022-11-25T00:24:41;7.50;99.90
54832;DHT22;40730;53.068;6.572;2022-11-25T00:27:07;7.50;99.90
54832;DHT22;40730;53.068;6.572;2022-11-25T00:29:32;7.50;99.90
54832;DHT22;40730;53.068;6.572;2022-11-25T00:31:58;7.50;99.90
54832;DHT22;40730;53.068;6.572;2022-11-25T00:34:24;7.50;99.90
54832;DHT22;40730;53.068;6.572;2022-11-25T00:36:49;7.50;99.90
54832;DHT22;40730;53.068;6.572;2022-11-25T00:39:17;7.50;99.90
54832;DHT22;40730;53.068;6.572;2022-11-25T00:41:45;7.50;99.90
54832;DHT22;40730;53.068;6.572;2022-11-25T00:44:30;7.40;99.90
54832;DHT22;40730;53.068;6.572;2022-11-25T00:49:41;7.40;99.90
54832;DHT22;40730;53.068;6.572;2022-11-25T00:52:08;7.40;99.90
54832;DHT22;40730;53.068;6.572;2022-11-25T00:54:34;7.40;99.90
54832;DHT22;40730;53.068;6.572;2022-11-25T00:57:00;7.40;99.90
54832;DHT22;40730;53.068;6.572;2022-11-25T00:59:25;7.40;99.90
54832;DHT22;40730;53.068;6.572;2022-11-25T01:01:51;7.40;99.90
54832;DHT22;40730;53.068;6.572;2022-11-25T01:04:17;7.50;99.90
54832;DHT22;40730;53.068;6.572;2022-11-25T01:06:43;7.50;99.90
54832;DHT22;40730;53.068;6.572;2022-11-25T01:09:10;7.50;99.90
54832;DHT22;40730;53.068;6.572;2022-11-25T01:11:36;7.50;99.90
54832;DHT22;40730;53.068;6.572;2022-11-25T01:14:02;7.50;99.90
54832;DHT22;40730;53.068;6.572;2022-11-25T01:16:28;7.50;99.90
54832;DHT22;40730;53.068;6.572;2022-11-25T01:18:54;7.50;99.90
54832;DHT22;40730;53.068;6.572;2022-11-25T01:21:22;7.50;99.90
54832;DHT22;40730;53.068;6.572;2022-11-25T01:23:48;7.50;99.90
54832;DHT22;40730;53.068;6.572;2022-11-25T01:26:23;7.50;99.90
54832;DHT22;40730;53.068;6.572;2022-11-25T01:28:53;7.40;99.90
54832;DHT22;40730;53.068;6.572;2022-11-25T01:31:20;7.40;99.90
54832;DHT22;40730;53.068;6.572;2022-11-25T01:33:51;7.40;99.90
54832;DHT22;40730;53.068;6.572;2022-11-25T01:36:17;7.30;99.90
54832;DHT22;40730;53.068;6.572;2022-11-25T01:38:44;7.30;99.90
54832;DHT22;40730;53.068;6.572;2022-11-25T01:41:12;7.30;99.90
54832;DHT22;40730;53.068;6.572;2022-11-25T01:43:38;7.30;99.90
54832;DHT22;40730;53.068;6.572;2022-11-25T01:46:21;7.30;99.90
54832;DHT22;40730;53.068;6.572;2022-11-25T01:48:56;7.40;99.90
54832;DHT22;40730;53.068;6.572;2022-11-25T01:51:44;7.40;99.90
54832;DHT22;40730;53.068;6.572;2022-11-25T01:54:14;7.40;99.90
54832;DHT22;40730;53.068;6.572;2022-11-25T01:56:53;7.50;99.90
54832;DHT22;40730;53.068;6.572;2022-11-25T01:59:19;7.50;99.90
54832;DHT22;40730;53.068;6.572;2022-11-25T02:01:45;7.50;99.90
54832;DHT22;40730;53.068;6.572;2022-11-25T02:04:12;7.60;99.90
54832;DHT22;40730;53.068;6.572;2022-11-25T02:06:43;7.60;99.90
54832;DHT22;40730;53.068;6.572;2022-11-25T02:09:12;7.60;99.90
54832;DHT22;40730;53.068;6.572;2022-11-25T02:11:39;7.60;99.90
54832;DHT22;40730;53.068;6.572;2022-11-25T02:14:07;7.60;99.90
54832;DHT22;40730;53.068;6.572;2022-11-25T02:16:33;7.50;99.90
54832;DHT22;40730;53.068;6.572;2022-11-25T02:19:00;7.50;99.90
54832;DHT22;40730;53.068;6.572;2022-11-25T02:21:37;7.60;99.90
54832;DHT22;40730;53.068;6.572;2022-11-25T02:24:24;7.50;99.90
54832;DHT22;40730;53.068;6.572;2022-11-25T02:26:51;7.50;99.90
54832;DHT22;40730;53.068;6.572;2022-11-25T02:29:16;7.40;99.90
54832;DHT22;40730;53.068;6.572;2022-11-25T02:31:43;7.40;99.90
54832;DHT22;40730;53.068;6.572;2022-11-25T02:34:08;7.50;99.90
54832;DHT22;40730;53.068;6.572;2022-11-25T02:36:35;7.50;99.90
54832;DHT22;40730;53.068;6.572;2022-11-25T02:39:01;7.40;99.90
54832;DHT22;40730;53.068;6.572;2022-11-25T02:41:51;7.40;99.90
54832;DHT22;40730;53.068;6.572;2022-11-25T02:44:18;7.40;99.90
54832;DHT22;40730;53.068;6.572;2022-11-25T02:46:44;7.40;99.90
54832;DHT22;40730;53.068;6.572;2022-11-25T02:49:10;7.40;99.90
54832;DHT22;40730;53.068;6.572;2022-11-25T02:51:38;7.50;99.90
54832;DHT22;40730;53.068;6.572;2022-11-25T02:54:04;7.40;99.90
54832;DHT22;40730;53.068;6.572;2022-11-25T02:56:32;7.50;99.90
54832;DHT22;40730;53.068;6.572;2022-11-25T02:58:58;7.50;99.90
54832;DHT22;40730;53.068;6.572;2022-11-25T03:01:24;7.40;99.90
54832;DHT22;40730;53.068;6.572;2022-11-25T03:03:49;7.50;99.90
54832;DHT22;40730;53.068;6.572;2022-11-25T03:06:15;7.50;99.90
54832;DHT22;40730;53.068;6.572;2022-11-25T03:08:41;7.50;99.90
54832;DHT22;40730;53.068;6.572;2022-11-25T03:11:06;7.50;99.90
54832;DHT22;40730;53.068;6.572;2022-11-25T03:13:32;7.60;99.90
54832;DHT22;40730;53.068;6.572;2022-11-25T03:15:58;7.60;99.90
54832;DHT22;40730;53.068;6.572;2022-11-25T03:18:24;7.60;99.90
54832;DHT22;40730;53.068;6.572;2022-11-25T03:20:54;7.60;99.90
54832;DHT22;40730;53.068;6.572;2022-11-25T03:23:20;7.60;99.90
54832;DHT22;40730;53.068;6.572;2022-11-25T03:25:46;7.60;99.90
54832;DHT22;40730;53.068;6.572;2022-11-25T03:28:12;7.60;99.90
54832;DHT22;40730;53.068;6.572;2022-11-25T03:30:37;7.60;99.90
54832;DHT22;40730;53.068;6.572;2022-11-25T03:33:03;7.60;99.90
54832;DHT22;40730;53.068;6.572;2022-11-25T03:35:29;7.60;99.90
54832;DHT22;40730;53.068;6.572;2022-11-25T03:37:55;7.60;99.90
54832;DHT22;40730;53.068;6.572;2022-11-25T03:40:20;7.60;99.90
54832;DHT22;40730;53.068;6.572;2022-11-25T03:42:46;7.60;99.90
54832;DHT22;40730;53.068;6.572;2022-11-25T03:45:13;7.60;99.90
54832;DHT22;40730;53.068;6.572;2022-11-25T03:47:41;7.60;99.90
54832;DHT22;40730;53.068;6.572;2022-11-25T03:50:09;7.60;99.90
54832;DHT22;40730;53.068;6.572;2022-11-25T03:52:35;7.60;99.90
54832;DHT22;40730;53.068;6.572;2022-11-25T03:55:01;7.60;99.90
54832;DHT22;40730;53.068;6.572;2022-11-25T03:57:27;7.60;99.90
54832;DHT22;40730;53.068;6.572;2022-11-25T03:59:52;7.60;99.90
54832;DHT22;40730;53.068;6.572;2022-11-25T04:02:18;7.60;99.90
54832;DHT22;40730;53.068;6.572;2022-11-25T04:04:43;7.60;99.90
54832;DHT22;40730;53.068;6.572;2022-11-25T04:07:09;7.60;99.90
54832;DHT22;40730;53.068;6.572;2022-11-25T04:09:35;7.70;99.90
54832;DHT22;40730;53.068;6.572;2022-11-25T04:12:00;7.70;99.90
54832;DHT22;40730;53.068;6.572;2022-11-25T04:14:44;7.70;99.90
54832;DHT22;40730;53.068;6.572;2022-11-25T04:17:10;7.70;99.90
54832;DHT22;40730;53.068;6.572;2022-11-25T04:19:35;7.70;99.90
54832;DHT22;40730;53.068;6.572;2022-11-25T04:22:01;7.70;99.90
54832;DHT22;40730;53.068;6.572;2022-11-25T04:24:27;7.80;99.90
54832;DHT22;40730;53.068;6.572;2022-11-25T04:26:53;7.80;99.90
54832;DHT22;40730;53.068;6.572;2022-11-25T04:29:19;7.80;99.90
54832;DHT22;40730;53.068;6.572;2022-11-25T04:31:44;7.80;99.90
54832;DHT22;40730;53.068;6.572;2022-11-25T04:34:10;7.80;99.90
54832;DHT22;40730;53.068;6.572;2022-11-25T04:36:35;7.80;99.90
54832;DHT22;40730;53.068;6.572;2022-11-25T04:39:01;7.80;99.90
54832;DHT22;40730;53.068;6.572;2022-11-25T04:41:27;7.80;99.90
54832;DHT22;40730;53.068;6.572;2022-11-25T04:43:52;7.80;99.90
54832;DHT22;40730;53.068;6.572;2022-11-25T04:46:21;7.80;99.90
54832;DHT22;40730;53.068;6.572;2022-11-25T04:48:47;7.80;99.90
54832;DHT22;40730;53.068;6.572;2022-11-25T04:51:13;7.80;99.90
54832;DHT22;40730;53.068;6.572;2022-11-25T04:53:38;7.80;99.90
54832;DHT22;40730;53.068;6.572;2022-11-25T04:56:04;7.80;99.90
54832;DHT22;40730;53.068;6.572;2022-11-25T04:58:30;7.80;99.90
54832;DHT22;40730;53.068;6.572;2022-11-25T05:01:14;7.80;99.90
54832;DHT22;40730;53.068;6.572;2022-11-25T05:03:40;7.80;99.90
54832;DHT22;40730;53.068;6.572;2022-11-25T05:06:07;7.80;99.90
54832;DHT22;40730;53.068;6.572;2022-11-25T05:08:33;7.80;99.90
54832;DHT22;40730;53.068;6.572;2022-11-25T05:10:58;7.80;99.90
54832;DHT22;40730;53.068;6.572;2022-11-25T05:13:25;7.80;99.90
54832;DHT22;40730;53.068;6.572;2022-11-25T05:15:50;7.80;99.90
54832;DHT22;40730;53.068;6.572;2022-11-25T05:18:16;7.80;99.90
54832;DHT22;40730;53.068;6.572;2022-11-25T05:20:43;7.80;99.90
54832;DHT22;40730;53.068;6.572;2022-11-25T05:23:08;7.80;99.90
54832;DHT22;40730;53.068;6.572;2022-11-25T05:25:34;7.80;99.90
54832;DHT22;40730;53.068;6.572;2022-11-25T05:28:00;7.80;99.90
54832;DHT22;40730;53.068;6.572;2022-11-25T05:30:26;7.80;99.90
54832;DHT22;40730;53.068;6.572;2022-11-25T05:32:51;7.80;99.90
54832;DHT22;40730;53.068;6.572;2022-11-25T05:35:17;7.80;99.90
54832;DHT22;40730;53.068;6.572;2022-11-25T05:37:43;7.80;99.90
54832;DHT22;40730;53.068;6.572;2022-11-25T05:40:09;7.90;99.90
54832;DHT22;40730;53.068;6.572;2022-11-25T05:42:35;7.90;99.90
54832;DHT22;40730;53.068;6.572;2022-11-25T05:45:01;7.90;99.90
54832;DHT22;40730;53.068;6.572;2022-11-25T05:47:26;7.90;99.90
54832;DHT22;40730;53.068;6.572;2022-11-25T05:49:52;7.90;99.90
54832;DHT22;40730;53.068;6.572;2022-11-25T05:52:17;7.90;99.90
54832;DHT22;40730;53.068;6.572;2022-11-25T05:54:43;7.90;99.90
54832;DHT22;40730;53.068;6.572;2022-11-25T05:57:09;8.00;99.90
54832;DHT22;40730;53.068;6.572;2022-11-25T05:59:34;8.00;99.90
54832;DHT22;40730;53.068;6.572;2022-11-25T06:02:00;8.00;99.90
54832;DHT22;40730;53.068;6.572;2022-11-25T06:04:25;8.00;99.90
54832;DHT22;40730;53.068;6.572;2022-11-25T06:06:51;8.00;99.90
54832;DHT22;40730;53.068;6.572;2022-11-25T06:09:16;8.10;99.90
54832;DHT22;40730;53.068;6.572;2022-11-25T06:11:42;8.10;99.90
54832;DHT22;40730;53.068;6.572;2022-11-25T06:14:08;8.10;99.90
54832;DHT22;40730;53.068;6.572;2022-11-25T06:16:34;8.10;99.90
54832;DHT22;40730;53.068;6.572;2022-11-25T06:19:01;8.10;99.90
54832;DHT22;40730;53.068;6.572;2022-11-25T06:21:30;8.20;99.90
54832;DHT22;40730;53.068;6.572;2022-11-25T06:23:55;8.20;99.90
54832;DHT22;40730;53.068;6.572;2022-11-25T06:26:21;8.20;99.90
54832;DHT22;40730;53.068;6.572;2022-11-25T06:28:48;8.20;99.90
54832;DHT22;40730;53.068;6.572;2022-11-25T06:31:19;8.20;99.90
54832;DHT22;40730;53.068;6.572;2022-11-25T06:33:46;8.20;99.90
54832;DHT22;40730;53.068;6.572;2022-11-25T06:36:12;8.30;99.90
54832;DHT22;40730;53.068;6.572;2022-11-25T06:38:43;8.20;99.90
54832;DHT22;40730;53.068;6.572;2022-11-25T06:41:09;8.20;99.90
54832;DHT22;40730;53.068;6.572;2022-11-25T06:43:34;8.20;99.90
54832;DHT22;40730;53.068;6.572;2022-11-25T06:46:05;8.20;99.90
54832;DHT22;40730;53.068;6.572;2022-11-25T06:48:31;8.20;99.90
54832;DHT22;40730;53.068;6.572;2022-11-25T06:50:58;8.30;99.90
54832;DHT22;40730;53.068;6.572;2022-11-25T06:53:25;8.20;99.90
54832;DHT22;40730;53.068;6.572;2022-11-25T06:56:22;8.30;99.90
54832;DHT22;40730;53.068;6.572;2022-11-25T06:58:47;8.20;99.90
54832;DHT22;40730;53.068;6.572;2022-11-25T07:01:17;8.20;99.90
54832;DHT22;40730;53.068;6.572;2022-11-25T07:03:44;8.20;99.90
54832;DHT22;40730;53.068;6.572;2022-11-25T07:06:14;8.20;99.90
54832;DHT22;40730;53.068;6.572;2022-11-25T07:08:40;8.20;99.90
54832;DHT22;40730;53.068;6.572;2022-11-25T07:11:10;8.20;99.90
54832;DHT22;40730;53.068;6.572;2022-11-25T07:13:37;8.20;99.90
54832;DHT22;40730;53.068;6.572;2022-11-25T07:16:04;8.20;99.90
54832;DHT22;40730;53.068;6.572;2022-11-25T07:18:32;8.20;99.90
54832;DHT22;40730;53.068;6.572;2022-11-25T07:23:35;8.20;99.90
54832;DHT22;40730;53.068;6.572;2022-11-25T07:28:35;8.20;99.90
54832;DHT22;40730;53.068;6.572;2022-11-25T07:33:43;8.20;99.90
54832;DHT22;40730;53.068;6.572;2022-11-25T07:36:11;8.20;99.90
54832;DHT22;40730;53.068;6.572;2022-11-25T07:38:38;8.20;99.90
54832;DHT22;40730;53.068;6.572;2022-11-25T07:43:30;8.20;99.90
54832;DHT22;40730;53.068;6.572;2022-11-25T07:45:55;8.20;99.90
54832;DHT22;40730;53.068;6.572;2022-11-25T07:48:21;8.20;99.90
54832;DHT22;40730;53.068;6.572;2022-11-25T07:50:46;8.20;99.90
54832;DHT22;40730;53.068;6.572;2022-11-25T07:53:14;8.10;99.90
54832;DHT22;40730;53.068;6.572;2022-11-25T07:55:40;8.10;99.90
54832;DHT22;40730;53.068;6.572;2022-11-25T07:58:06;8.10;99.90
54832;DHT22;40730;53.068;6.572;2022-11-25T08:00:31;8.10;99.90
54832;DHT22;40730;53.068;6.572;2022-11-25T08:02:57;8.00;99.90
54832;DHT22;40730;53.068;6.572;2022-11-25T08:05:22;8.20;99.90
54832;DHT22;40730;53.068;6.572;2022-11-25T08:07:48;8.00;99.90
54832;DHT22;40730;53.068;6.572;2022-11-25T08:10:13;8.00;99.90
54832;DHT22;40730;53.068;6.572;2022-11-25T08:12:39;8.00;99.90
54832;DHT22;40730;53.068;6.572;2022-11-25T08:15:05;8.00;99.90
54832;DHT22;40730;53.068;6.572;2022-11-25T08:17:31;8.00;99.90
54832;DHT22;40730;53.068;6.572;2022-11-25T08:19:57;8.00;99.90
54832;DHT22;40730;53.068;6.572;2022-11-25T08:22:23;8.00;99.90
54832;DHT22;40730;53.068;6.572;2022-11-25T08:24:48;8.10;99.90
54832;DHT22;40730;53.068;6.572;2022-11-25T08:27:14;8.10;99.90
54832;DHT22;40730;53.068;6.572;2022-11-25T08:29:39;8.10;99.90
54832;DHT22;40730;53.068;6.572;2022-11-25T08:32:05;8.10;99.90
54832;DHT22;40730;53.068;6.572;2022-11-25T08:34:33;8.10;99.90
54832;DHT22;40730;53.068;6.572;2022-11-25T08:36:58;8.10;99.90
54832;DHT22;40730;53.068;6.572;2022-11-25T08:39:24;8.10;99.90
54832;DHT22;40730;53.068;6.572;2022-11-25T08:41:49;8.10;99.90
54832;DHT22;40730;53.068;6.572;2022-11-25T08:44:15;8.20;99.90
54832;DHT22;40730;53.068;6.572;2022-11-25T08:46:41;8.20;99.90
54832;DHT22;40730;53.068;6.572;2022-11-25T08:49:07;8.20;99.90
54832;DHT22;40730;53.068;6.572;2022-11-25T08:51:36;8.30;99.90
54832;DHT22;40730;53.068;6.572;2022-11-25T08:54:03;8.30;99.90
54832;DHT22;40730;53.068;6.572;2022-11-25T08:56:29;8.40;99.90
54832;DHT22;40730;53.068;6.572;2022-11-25T08:58:55;8.50;99.90
54832;DHT22;40730;53.068;6.572;2022-11-25T09:01:22;8.60;99.90
54832;DHT22;40730;53.068;6.572;2022-11-25T09:03:50;8.70;99.90
54832;DHT22;40730;53.068;6.572;2022-11-25T09:06:16;8.70;99.90
54832;DHT22;40730;53.068;6.572;2022-11-25T09:08:43;8.70;99.90
54832;DHT22;40730;53.068;6.572;2022-11-25T09:11:10;8.70;99.90
54832;DHT22;40730;53.068;6.572;2022-11-25T09:13:35;8.80;99.90
54832;DHT22;40730;53.068;6.572;2022-11-25T09:16:01;8.70;99.90
54832;DHT22;40730;53.068;6.572;2022-11-25T09:18:27;8.80;99.90
54832;DHT22;40730;53.068;6.572;2022-11-25T09:20:55;8.80;99.90
54832;DHT22;40730;53.068;6.572;2022-11-25T09:23:21;8.80;99.90
54832;DHT22;40730;53.068;6.572;2022-11-25T09:25:51;8.80;99.90
54832;DHT22;40730;53.068;6.572;2022-11-25T09:28:18;8.90;99.90
54832;DHT22;40730;53.068;6.572;2022-11-25T09:30:43;8.90;99.90
54832;DHT22;40730;53.068;6.572;2022-11-25T09:33:09;8.90;99.90
54832;DHT22;40730;53.068;6.572;2022-11-25T09:35:36;9.00;99.90
54832;DHT22;40730;53.068;6.572;2022-11-25T09:38:01;9.00;99.90
54832;DHT22;40730;53.068;6.572;2022-11-25T09:52:17;9.30;99.90
54832;DHT22;40730;53.068;6.572;2022-11-25T09:54:48;9.40;99.90
54832;DHT22;40730;53.068;6.572;2022-11-25T09:57:29;9.40;99.90
54832;DHT22;40730;53.068;6.572;2022-11-25T10:00:15;9.40;99.90
54832;DHT22;40730;53.068;6.572;2022-11-25T10:08:36;9.60;99.90
54832;DHT22;40730;53.068;6.572;2022-11-25T10:16:51;9.70;99.90
54832;DHT22;40730;53.068;6.572;2022-11-25T10:19:58;9.70;99.90
54832;DHT22;40730;53.068;6.572;2022-11-25T10:22:26;9.80;99.90
54832;DHT22;40730;53.068;6.572;2022-11-25T10:24:56;9.90;99.90
54832;DHT22;40730;53.068;6.572;2022-11-25T10:27:30;9.90;99.90
54832;DHT22;40730;53.068;6.572;2022-11-25T10:30:21;10.00;99.90
54832;DHT22;40730;53.068;6.572;2022-11-25T10:33:04;10.10;99.90
54832;DHT22;40730;53.068;6.572;2022-11-25T10:35:48;10.20;99.90
54832;DHT22;40730;53.068;6.572;2022-11-25T10:38:31;10.20;99.90
54832;DHT22;40730;53.068;6.572;2022-11-25T10:41:02;10.30;99.90
54832;DHT22;40730;53.068;6.572;2022-11-25T10:43:32;10.20;99.90
54832;DHT22;40730;53.068;6.572;2022-11-25T10:46:21;10.30;99.90
54832;DHT22;40730;53.068;6.572;2022-11-25T10:48:57;10.30;99.90
54832;DHT22;40730;53.068;6.572;2022-11-25T10:51:37;10.40;99.90
54832;DHT22;40730;53.068;6.572;2022-11-25T10:54:08;10.50;99.90
54832;DHT22;40730;53.068;6.572;2022-11-25T10:57:30;10.60;99.90
54832;DHT22;40730;53.068;6.572;2022-11-25T10:59:39;10.80;99.90
54832;DHT22;40730;53.068;6.572;2022-11-25T11:05:26;11.10;99.90
54832;DHT22;40730;53.068;6.572;2022-11-25T11:08:36;11.30;99.90
54832;DHT22;40730;53.068;6.572;2022-11-25T11:11:21;11.40;99.90
54832;DHT22;40730;53.068;6.572;2022-11-25T11:13:48;11.50;99.90
54832;DHT22;40730;53.068;6.572;2022-11-25T11:16:32;11.60;99.90
54832;DHT22;40730;53.068;6.572;2022-11-25T11:19:00;11.70;99.90
54832;DHT22;40730;53.068;6.572;2022-11-25T11:23:55;11.90;99.90
54832;DHT22;40730;53.068;6.572;2022-11-25T11:28:47;12.10;99.90
54832;DHT22;40730;53.068;6.572;2022-11-25T11:31:19;12.30;99.90
54832;DHT22;40730;53.068;6.572;2022-11-25T11:36:34;12.40;99.90
54832;DHT22;40730;53.068;6.572;2022-11-25T11:39:14;12.40;99.90
54832;DHT22;40730;53.068;6.572;2022-11-25T11:55:36;12.90;99.90
54832;DHT22;40730;53.068;6.572;2022-11-25T12:03:26;12.80;99.90
54832;DHT22;40730;53.068;6.572;2022-11-25T12:05:53;12.70;99.90
54832;DHT22;40730;53.068;6.572;2022-11-25T12:08:37;12.40;99.90
54832;DHT22;40730;53.068;6.572;2022-11-25T12:11:26;12.30;99.90
54832;DHT22;40730;53.068;6.572;2022-11-25T12:14:13;12.20;99.90
54832;DHT22;40730;53.068;6.572;2022-11-25T12:16:55;12.30;99.90
54832;DHT22;40730;53.068;6.572;2022-11-25T12:22:06;12.50;99.90
54832;DHT22;40730;53.068;6.572;2022-11-25T12:24:49;12.40;99.90
54832;DHT22;40730;53.068;6.572;2022-11-25T12:27:32;12.30;99.90
54832;DHT22;40730;53.068;6.572;2022-11-25T12:30:04;12.30;99.90
54832;DHT22;40730;53.068;6.572;2022-11-25T12:32:45;12.30;99.90
54832;DHT22;40730;53.068;6.572;2022-11-25T12:41:11;12.40;99.90
54832;DHT22;40730;53.068;6.572;2022-11-25T12:43:51;12.40;99.90
54832;DHT22;40730;53.068;6.572;2022-11-25T12:49:05;12.60;99.90
54832;DHT22;40730;53.068;6.572;2022-11-25T12:51:48;12.60;99.90
54832;DHT22;40730;53.068;6.572;2022-11-25T13:00:01;12.50;99.90
54832;DHT22;40730;53.068;6.572;2022-11-25T13:02:40;12.50;99.90
54832;DHT22;40730;53.068;6.572;2022-11-25T13:08:20;12.40;99.90
54832;DHT22;40730;53.068;6.572;2022-11-25T13:16:05;12.40;99.90
54832;DHT22;40730;53.068;6.572;2022-11-25T13:18:32;12.40;99.90
54832;DHT22;40730;53.068;6.572;2022-11-25T13:21:06;12.50;99.90
54832;DHT22;40730;53.068;6.572;2022-11-25T13:23:49;12.40;99.90
54832;DHT22;40730;53.068;6.572;2022-11-25T13:26:32;12.40;99.90
54832;DHT22;40730;53.068;6.572;2022-11-25T13:31:33;12.20;99.90
54832;DHT22;40730;53.068;6.572;2022-11-25T13:34:27;12.00;99.90
54832;DHT22;40730;53.068;6.572;2022-11-25T13:36:55;11.80;99.90
54832;DHT22;40730;53.068;6.572;2022-11-25T13:39:35;11.70;99.90
54832;DHT22;40730;53.068;6.572;2022-11-25T13:44:56;11.60;99.90
54832;DHT22;40730;53.068;6.572;2022-11-25T13:50:03;11.40;99.90
54832;DHT22;40730;53.068;6.572;2022-11-25T13:52:34;11.40;99.90
54832;DHT22;40730;53.068;6.572;2022-11-25T13:57:41;11.40;99.90
54832;DHT22;40730;53.068;6.572;2022-11-25T14:06:19;11.30;99.90
54832;DHT22;40730;53.068;6.572;2022-11-25T14:09:13;11.30;99.90
54832;DHT22;40730;53.068;6.572;2022-11-25T14:12:13;11.20;99.90
54832;DHT22;40730;53.068;6.572;2022-11-25T14:25:55;11.10;99.90
54832;DHT22;40730;53.068;6.572;2022-11-25T14:28:28;11.10;99.90
54832;DHT22;40730;53.068;6.572;2022-11-25T14:30:57;11.10;99.90
54832;DHT22;40730;53.068;6.572;2022-11-25T14:33:35;10.90;99.90
54832;DHT22;40730;53.068;6.572;2022-11-25T14:36:10;10.90;99.90
54832;DHT22;40730;53.068;6.572;2022-11-25T14:38:58;10.80;99.90
54832;DHT22;40730;53.068;6.572;2022-11-25T14:41:31;10.80;99.90
54832;DHT22;40730;53.068;6.572;2022-11-25T14:44:03;10.80;99.90
54832;DHT22;40730;53.068;6.572;2022-11-25T14:46:29;10.70;99.90
54832;DHT22;40730;53.068;6.572;2022-11-25T14:49:00;10.70;99.90
54832;DHT22;40730;53.068;6.572;2022-11-25T14:51:33;10.60;99.90
54832;DHT22;40730;53.068;6.572;2022-11-25T14:53:59;10.60;99.90
54832;DHT22;40730;53.068;6.572;2022-11-25T14:56:28;10.60;99.90
54832;DHT22;40730;53.068;6.572;2022-11-25T14:58:55;10.60;99.90
54832;DHT22;40730;53.068;6.572;2022-11-25T15:01:27;10.60;99.90
54832;DHT22;40730;53.068;6.572;2022-11-25T15:06:40;10.40;99.90
54832;DHT22;40730;53.068;6.572;2022-11-25T15:12:12;10.30;99.90
54832;DHT22;40730;53.068;6.572;2022-11-25T15:14:40;10.20;99.90
54832;DHT22;40730;53.068;6.572;2022-11-25T15:17:09;10.10;99.90
54832;DHT22;40730;53.068;6.572;2022-11-25T15:19:41;10.00;99.90
54832;DHT22;40730;53.068;6.572;2022-11-25T15:22:10;9.90;99.90
54832;DHT22;40730;53.068;6.572;2022-11-25T15:24:46;9.80;99.90
54832;DHT22;40730;53.068;6.572;2022-11-25T15:29:41;9.60;99.90
54832;DHT22;40730;53.068;6.572;2022-11-25T15:32:16;9.60;99.90
54832;DHT22;40730;53.068;6.572;2022-11-25T15:34:43;9.50;99.90
54832;DHT22;40730;53.068;6.572;2022-11-25T15:37:10;9.50;99.90
54832;DHT22;40730;53.068;6.572;2022-11-25T15:39:36;9.40;99.90
54832;DHT22;40730;53.068;6.572;2022-11-25T15:42:44;9.30;99.90
54832;DHT22;40730;53.068;6.572;2022-11-25T15:44:55;9.20;99.90
54832;DHT22;40730;53.068;6.572;2022-11-25T15:47:26;9.10;99.90
54832;DHT22;40730;53.068;6.572;2022-11-25T15:52:19;8.90;99.90
54832;DHT22;40730;53.068;6.572;2022-11-25T15:54:47;8.80;99.90
54832;DHT22;40730;53.068;6.572;2022-11-25T15:57:32;8.80;99.90
54832;DHT22;40730;53.068;6.572;2022-11-25T16:26:58;8.10;99.90
54832;DHT22;40730;53.068;6.572;2022-11-25T16:29:46;8.10;99.90
54832;DHT22;40730;53.068;6.572;2022-11-25T16:32:15;8.10;99.90
54832;DHT22;40730;53.068;6.572;2022-11-25T16:34:41;8.10;99.90
54832;DHT22;40730;53.068;6.572;2022-11-25T16:37:07;8.10;99.90
54832;DHT22;40730;53.068;6.572;2022-11-25T16:39:32;8.00;99.90
54832;DHT22;40730;53.068;6.572;2022-11-25T16:41:59;7.90;99.90
54832;DHT22;40730;53.068;6.572;2022-11-25T16:44:30;7.90;99.90
54832;DHT22;40730;53.068;6.572;2022-11-25T16:46:56;7.80;99.90
54832;DHT22;40730;53.068;6.572;2022-11-25T16:49:22;7.80;99.90
54832;DHT22;40730;53.068;6.572;2022-11-25T16:51:49;7.70;99.90
54832;DHT22;40730;53.068;6.572;2022-11-25T16:54:19;7.80;99.90
54832;DHT22;40730;53.068;6.572;2022-11-25T16:56:47;7.80;99.90
54832;DHT22;40730;53.068;6.572;2022-11-25T16:59:17;7.80;99.90
54832;DHT22;40730;53.068;6.572;2022-11-25T17:01:44;7.80;99.90
54832;DHT22;40730;53.068;6.572;2022-11-25T17:04:13;7.70;99.90
54832;DHT22;40730;53.068;6.572;2022-11-25T17:06:40;7.60;99.90
54832;DHT22;40730;53.068;6.572;2022-11-25T17:09:07;7.50;99.90
54832;DHT22;40730;53.068;6.572;2022-11-25T17:11:36;7.30;99.90
54832;DHT22;40730;53.068;6.572;2022-11-25T17:14:05;7.20;99.90
54832;DHT22;40730;53.068;6.572;2022-11-25T17:16:32;7.00;99.90
54832;DHT22;40730;53.068;6.572;2022-11-25T17:18:58;7.00;99.90
54832;DHT22;40730;53.068;6.572;2022-11-25T17:21:25;6.90;99.90
54832;DHT22;40730;53.068;6.572;2022-11-25T17:23:57;6.90;99.90
54832;DHT22;40730;53.068;6.572;2022-11-25T17:26:29;6.90;99.90
54832;DHT22;40730;53.068;6.572;2022-11-25T17:28:59;6.60;99.90
54832;DHT22;40730;53.068;6.572;2022-11-25T17:31:29;6.70;99.90
54832;DHT22;40730;53.068;6.572;2022-11-25T17:33:55;6.70;99.90
54832;DHT22;40730;53.068;6.572;2022-11-25T17:36:21;6.60;99.90
54832;DHT22;40730;53.068;6.572;2022-11-25T17:38:47;6.60;99.90
54832;DHT22;40730;53.068;6.572;2022-11-25T17:41:15;6.50;99.90
54832;DHT22;40730;53.068;6.572;2022-11-25T17:43:42;6.50;99.90
54832;DHT22;40730;53.068;6.572;2022-11-25T17:46:13;6.50;99.90
54832;DHT22;40730;53.068;6.572;2022-11-25T17:48:39;6.50;99.90
54832;DHT22;40730;53.068;6.572;2022-11-25T17:51:07;6.40;99.90
54832;DHT22;40730;53.068;6.572;2022-11-25T17:53:34;6.40;99.90
54832;DHT22;40730;53.068;6.572;2022-11-25T17:56:22;6.40;99.90
54832;DHT22;40730;53.068;6.572;2022-11-25T17:58:49;6.40;99.90
54832;DHT22;40730;53.068;6.572;2022-11-25T18:01:15;6.30;99.90
54832;DHT22;40730;53.068;6.572;2022-11-25T18:03:40;6.30;99.90
54832;DHT22;40730;53.068;6.572;2022-11-25T18:06:06;6.20;99.90
54832;DHT22;40730;53.068;6.572;2022-11-25T18:08:32;6.20;99.90
54832;DHT22;40730;53.068;6.572;2022-11-25T18:10:59;6.20;99.90
54832;DHT22;40730;53.068;6.572;2022-11-25T18:13:25;6.20;99.90
54832;DHT22;40730;53.068;6.572;2022-11-25T18:15:51;6.30;99.90
54832;DHT22;40730;53.068;6.572;2022-11-25T18:18:21;6.30;99.90
54832;DHT22;40730;53.068;6.572;2022-11-25T18:20:48;6.30;99.90
54832;DHT22;40730;53.068;6.572;2022-11-25T18:23:14;6.40;99.90
54832;DHT22;40730;53.068;6.572;2022-11-25T18:25:41;6.40;99.90
54832;DHT22;40730;53.068;6.572;2022-11-25T18:28:06;6.40;99.90
54832;DHT22;40730;53.068;6.572;2022-11-25T18:30:34;6.40;99.90
54832;DHT22;40730;53.068;6.572;2022-11-25T18:33:02;6.50;99.90